Kingston, Canada
Current Conditions -  °F | °C
As of 11:00 PM on Friday 21 Nov 2014 (Local Time) from CYGK Reporting Station
Few Clouds Few Clouds  
Wind Chill: 14°   Ceiling: Unl
Heat Index: 21°   Visibility: 15mi
Dew Point: 10°   Wind: 6mph
Humidity: 63%   Direction: 250°WSW
Pressure: 30.36"   Gusts: NA
Location:  44.23°N, 76.48°W
Report Text: CYGK 220400Z 25005KT 15SM FEW110 M06/M12 A3036 RMK AC2 LAST STFD OBS/NEXT 221100 UTC SLP287
Loading
Personal Weather Stations






























Interactive Weather Map New forecast layout! Learn more

10-Day Weather Forecast

Advertisements
Track Severe Weather on mobile